createdAt,value
2019-02-28T00:05:29.087Z,88.10
2019-02-28T00:08:29.145Z,88.50
2019-02-28T00:11:07.524Z,89.80
2019-02-28T00:13:55.853Z,90.80
2019-02-28T00:16:45.597Z,91.00
2019-02-28T00:19:33.588Z,91.20
2019-02-28T00:22:21.604Z,91.40
2019-02-28T00:25:09.782Z,91.70
2019-02-28T00:27:57.801Z,92.20
2019-02-28T00:30:40.815Z,92.20
2019-02-28T00:33:21.117Z,92.60
2019-02-28T00:36:02.104Z,92.90
2019-02-28T00:38:42.666Z,93.10
2019-02-28T00:41:23.029Z,93.10
2019-02-28T00:44:04.464Z,93.50
2019-02-28T00:46:45.377Z,93.40
2019-02-28T00:49:26.118Z,93.80
2019-02-28T00:52:07.230Z,94.00
2019-02-28T00:54:48.468Z,94.30
2019-02-28T00:57:29.117Z,94.40
2019-02-28T01:00:09.889Z,94.80
2019-02-28T01:02:53.270Z,95.10
2019-02-28T01:05:33.236Z,95.50
2019-02-28T01:08:14.476Z,95.40
2019-02-28T01:10:55.636Z,95.70
2019-02-28T01:13:36.269Z,95.80
2019-02-28T01:16:19.342Z,96.30
2019-02-28T01:18:59.375Z,96.50
2019-02-28T01:21:40.058Z,97.00
2019-02-28T01:24:20.444Z,97.50
2019-02-28T01:27:01.889Z,99.10
2019-02-28T01:29:43.241Z,98.60
2019-02-28T01:32:23.620Z,98.70
2019-02-28T01:35:06.817Z,99.10
2019-02-28T01:37:47.077Z,98.90
2019-02-28T01:40:27.729Z,98.60
2019-02-28T01:43:08.115Z,98.20
2019-02-28T01:45:48.573Z,97.40
2019-02-28T01:48:29.219Z,97.40
2019-02-28T01:51:09.909Z,97.20
2019-02-28T01:53:53.571Z,97.50
2019-02-28T01:56:34.245Z,97.40
2019-02-28T01:59:15.651Z,97.40
2019-02-28T02:01:56.318Z,97.40
2019-02-28T02:04:37.354Z,97.40
2019-02-28T02:07:18.166Z,97.50
2019-02-28T02:09:58.468Z,97.50
2019-02-28T02:12:39.308Z,97.50
2019-02-28T02:15:20.001Z,97.80
2019-02-28T02:18:00.764Z,97.80
2019-02-28T02:20:41.463Z,97.90
2019-02-28T02:23:21.831Z,98.20
2019-02-28T02:26:03.102Z,98.40
2019-02-28T02:28:43.657Z,98.60
2019-02-28T02:31:28.735Z,98.70
2019-02-28T02:34:07.568Z,98.60
2019-02-28T02:36:52.953Z,98.40
2019-02-28T02:39:30.867Z,98.20
2019-02-28T02:42:11.879Z,98.20
2019-02-28T02:44:52.255Z,98.30
2019-02-28T02:47:33.391Z,98.30
2019-02-28T02:50:13.815Z,98.10
2019-02-28T02:52:54.524Z,98.00
2019-02-28T02:55:35.135Z,98.00
2019-02-28T02:58:15.720Z,97.80
2019-02-28T03:00:56.170Z,97.70
2019-02-28T03:03:42.944Z,97.60
2019-02-28T03:06:19.331Z,97.60
2019-02-28T03:08:59.703Z,97.50
2019-02-28T03:11:40.362Z,97.80
2019-02-28T03:14:21.146Z,98.10
2019-02-28T03:17:09.723Z,98.10
2019-02-28T03:19:44.710Z,98.60
2019-02-28T03:22:29.794Z,98.70
2019-02-28T03:25:08.819Z,99.10
2019-02-28T03:27:55.125Z,99.20
2019-02-28T03:30:33.633Z,99.50
2019-02-28T03:33:27.322Z,99.80
2019-02-28T03:35:57.892Z,99.90
2019-02-28T03:38:39.481Z,99.90
2019-02-28T03:41:19.791Z,99.90
2019-02-28T03:44:00.570Z,99.90
2019-02-28T03:46:46.239Z,99.90
2019-02-28T03:49:24.256Z,99.90
2019-02-28T03:52:06.653Z,99.90
2019-02-28T03:54:47.361Z,99.90
2019-02-28T03:57:29.324Z,99.90
2019-02-28T04:00:10.856Z,99.90
2019-02-28T04:02:56.671Z,99.90
2019-02-28T04:05:34.391Z,99.90
2019-02-28T04:08:15.281Z,99.90
2019-02-28T04:10:55.960Z,99.90
2019-02-28T04:13:36.984Z,99.90
2019-02-28T04:16:17.775Z,99.90
2019-02-28T04:18:58.568Z,99.90
2019-02-28T04:21:46.174Z,99.90
2019-02-28T04:24:22.482Z,99.90
2019-02-28T04:27:06.925Z,99.90
2019-02-28T04:29:46.230Z,99.90
2019-02-28T04:32:27.956Z,99.90
2019-02-28T04:35:08.759Z,99.90
2019-02-28T04:37:49.687Z,99.90
2019-02-28T04:40:30.208Z,99.90
2019-02-28T04:43:10.908Z,99.90
2019-02-28T04:45:51.715Z,99.90
2019-02-28T04:48:32.329Z,99.90
2019-02-28T04:51:13.001Z,99.90
2019-02-28T04:53:53.827Z,99.90
2019-02-28T04:56:34.262Z,99.90
2019-02-28T04:59:15.309Z,99.90
2019-02-28T05:01:55.717Z,99.90
2019-02-28T05:04:36.842Z,99.90
2019-02-28T05:07:18.047Z,99.90
2019-02-28T05:09:58.716Z,99.90
2019-02-28T05:12:40.818Z,99.90
2019-02-28T05:15:22.397Z,99.90
2019-02-28T05:18:03.681Z,99.90
2019-02-28T05:20:45.879Z,99.90
2019-02-28T05:23:27.265Z,99.90
2019-02-28T05:26:07.905Z,99.90
2019-02-28T05:28:48.556Z,99.90
2019-02-28T05:31:29.074Z,99.90
2019-02-28T05:34:09.733Z,99.90
2019-02-28T05:36:50.154Z,99.90
2019-02-28T05:39:31.665Z,99.90
2019-02-28T05:42:13.075Z,99.90
2019-02-28T05:44:54.153Z,99.90
2019-02-28T05:47:45.738Z,99.90
2019-02-28T05:50:18.159Z,99.90
2019-02-28T05:52:59.035Z,99.90
2019-02-28T05:55:39.772Z,99.90
2019-02-28T05:58:20.909Z,99.90
2019-02-28T06:01:02.236Z,99.90
2019-02-28T06:03:43.278Z,99.90
2019-02-28T06:06:23.836Z,99.90
2019-02-28T06:09:04.757Z,99.90
2019-02-28T06:11:45.490Z,99.90
2019-02-28T06:14:27.626Z,99.90
2019-02-28T06:17:08.871Z,99.90
2019-02-28T06:19:49.905Z,99.90
2019-02-28T06:22:35.326Z,99.90
2019-02-28T06:25:17.869Z,99.90
2019-02-28T06:27:56.157Z,99.90
2019-02-28T06:30:36.864Z,99.90
2019-02-28T06:33:17.758Z,99.90
2019-02-28T06:35:58.547Z,99.90
2019-02-28T06:38:39.256Z,99.90
2019-02-28T06:41:20.071Z,99.90
2019-02-28T06:44:00.651Z,99.90
2019-02-28T06:46:41.421Z,99.90
2019-02-28T06:49:22.505Z,99.90
2019-02-28T06:52:03.196Z,99.90
2019-02-28T06:54:44.266Z,99.90
2019-02-28T06:57:26.743Z,99.90
2019-02-28T07:00:10.383Z,99.90
2019-02-28T07:02:50.247Z,99.90
2019-02-28T07:05:30.835Z,99.90
2019-02-28T07:08:11.462Z,99.90
2019-02-28T07:10:52.415Z,99.90
2019-02-28T07:13:32.784Z,99.90
2019-02-28T07:16:14.049Z,99.90
2019-02-28T07:18:54.994Z,99.90
2019-02-28T07:21:36.322Z,99.90
2019-02-28T07:24:17.339Z,99.90
2019-02-28T07:26:57.763Z,99.90
2019-02-28T07:29:38.571Z,99.90
2019-02-28T07:32:19.844Z,99.90
2019-02-28T07:35:00.435Z,99.90
2019-02-28T07:37:41.393Z,99.90
2019-02-28T07:40:22.388Z,99.90
2019-02-28T07:43:02.890Z,99.90
2019-02-28T07:45:43.582Z,99.90
2019-02-28T07:48:28.609Z,99.90
2019-02-28T07:51:06.667Z,99.90
2019-02-28T07:53:47.300Z,99.90
2019-02-28T07:56:28.051Z,99.90
2019-02-28T07:59:08.851Z,99.90
2019-02-28T08:01:50.835Z,99.90
2019-02-28T08:04:31.606Z,99.90
2019-02-28T08:07:14.872Z,99.90
2019-02-28T08:09:54.886Z,99.90
2019-02-28T08:12:35.502Z,99.90
2019-02-28T08:15:20.977Z,99.90
2019-02-28T08:17:59.109Z,99.90
2019-02-28T08:20:39.686Z,99.90
2019-02-28T08:23:20.111Z,99.90
2019-02-28T08:26:00.827Z,99.90
2019-02-28T08:28:41.612Z,99.90
2019-02-28T08:31:22.593Z,99.90
2019-02-28T08:34:02.987Z,99.90
2019-02-28T08:36:46.859Z,99.90
2019-02-28T08:39:26.742Z,99.90
2019-02-28T08:42:07.573Z,99.90
2019-02-28T08:44:48.098Z,99.90
2019-02-28T08:47:29.122Z,99.90
2019-02-28T08:50:10.515Z,99.90
2019-02-28T08:52:51.071Z,99.90
2019-02-28T08:55:32.022Z,99.90
2019-02-28T08:58:12.719Z,99.90
2019-02-28T09:00:54.363Z,99.90
2019-02-28T09:03:35.254Z,99.90
2019-02-28T09:06:15.846Z,99.90
2019-02-28T09:08:59.882Z,99.90
2019-02-28T09:11:39.586Z,99.90
2019-02-28T09:14:20.387Z,99.90
2019-02-28T09:17:01.182Z,99.90
2019-02-28T09:19:41.975Z,99.90
2019-02-28T09:22:26.984Z,99.90
2019-02-28T09:25:05.807Z,99.90
2019-02-28T09:27:46.319Z,99.90
2019-02-28T09:30:29.694Z,99.90
2019-02-28T09:33:09.782Z,99.90
2019-02-28T09:35:50.619Z,99.90
2019-02-28T09:38:31.336Z,99.90
2019-02-28T09:41:12.260Z,99.90
2019-02-28T09:43:52.699Z,99.90
2019-02-28T09:46:33.591Z,99.90
2019-02-28T09:49:14.456Z,99.90
2019-02-28T09:51:54.902Z,99.90
2019-02-28T09:54:35.814Z,99.90
2019-02-28T09:57:18.925Z,99.90
2019-02-28T09:59:59.503Z,99.90
2019-02-28T10:02:43.798Z,99.90
2019-02-28T10:05:22.919Z,99.90
2019-02-28T10:08:03.542Z,99.90
2019-02-28T10:10:43.999Z,99.90
2019-02-28T10:13:24.774Z,99.90
2019-02-28T10:16:05.679Z,99.90
2019-02-28T10:18:46.327Z,99.90
2019-02-28T10:21:26.846Z,99.90
2019-02-28T10:24:07.596Z,99.90
2019-02-28T10:26:51.351Z,99.90
2019-02-28T10:29:31.339Z,99.90
2019-02-28T10:32:11.932Z,99.90
2019-02-28T10:34:52.907Z,99.90
2019-02-28T10:37:33.643Z,99.90
2019-02-28T10:40:17.558Z,99.90
2019-02-28T10:42:57.116Z,99.90
2019-02-28T10:45:41.038Z,99.90
2019-02-28T10:48:20.507Z,99.90
2019-02-28T10:51:01.243Z,99.90
2019-02-28T10:53:42.051Z,99.90
2019-02-28T10:56:22.941Z,99.90
2019-02-28T10:59:03.486Z,99.90
2019-02-28T11:01:44.354Z,99.90
2019-02-28T11:04:24.727Z,99.90
2019-02-28T11:07:05.367Z,99.90
2019-02-28T11:09:45.876Z,99.90
2019-02-28T11:12:26.473Z,99.90
2019-02-28T11:15:07.086Z,99.90
2019-02-28T11:17:48.321Z,99.90
2019-02-28T11:20:29.683Z,99.70
2019-02-28T11:23:14.360Z,99.80
2019-02-28T11:25:53.972Z,99.90
2019-02-28T11:28:35.200Z,99.90
2019-02-28T11:31:16.348Z,99.90
2019-02-28T11:33:58.067Z,99.90
2019-02-28T11:36:38.512Z,99.90
2019-02-28T11:39:19.050Z,99.90
2019-02-28T11:41:59.783Z,99.90
2019-02-28T11:44:40.246Z,99.90
2019-02-28T11:47:20.827Z,99.90
2019-02-28T11:50:04.632Z,99.90
2019-02-28T11:52:44.083Z,99.90
2019-02-28T11:55:24.618Z,99.90
2019-02-28T11:58:05.139Z,99.90
2019-02-28T12:00:45.818Z,99.90
2019-02-28T12:03:26.531Z,99.90
2019-02-28T12:06:07.343Z,99.90
2019-02-28T12:08:48.039Z,99.90
2019-02-28T12:11:28.747Z,99.90
2019-02-28T12:14:09.471Z,99.90
2019-02-28T12:16:53.621Z,99.90
2019-02-28T12:19:32.749Z,99.90
2019-02-28T12:22:13.436Z,99.90
2019-02-28T12:24:55.245Z,99.90
2019-02-28T12:27:35.795Z,99.90
2019-02-28T12:30:16.500Z,99.90
2019-02-28T12:32:56.926Z,99.90
2019-02-28T12:35:40.533Z,99.90
2019-02-28T12:38:20.561Z,99.90
2019-02-28T12:41:01.196Z,99.90
2019-02-28T12:43:41.953Z,99.90
2019-02-28T12:46:22.659Z,99.90
2019-02-28T12:49:03.642Z,99.90
2019-02-28T12:51:44.404Z,99.90
2019-02-28T12:54:26.018Z,99.90
2019-02-28T12:57:06.989Z,99.90
2019-02-28T12:59:47.489Z,99.80
2019-02-28T13:02:28.259Z,99.90
2019-02-28T13:05:14.129Z,99.90
2019-02-28T13:07:51.450Z,99.70
2019-02-28T13:10:32.020Z,99.90
2019-02-28T13:13:12.750Z,99.80
2019-02-28T13:15:53.483Z,99.90
2019-02-28T13:18:34.522Z,99.90
2019-02-28T13:21:15.596Z,99.90
2019-02-28T13:23:56.375Z,99.90
2019-02-28T13:26:37.478Z,99.60
2019-02-28T13:29:18.645Z,99.90
2019-02-28T13:32:01.400Z,99.90
2019-02-28T13:34:42.136Z,99.90
2019-02-28T13:37:22.912Z,99.90
2019-02-28T13:40:04.242Z,99.90
2019-02-28T13:42:46.527Z,99.90
2019-02-28T13:45:27.937Z,99.90
2019-02-28T13:48:09.883Z,99.90
2019-02-28T13:50:51.635Z,99.90
2019-02-28T13:53:32.227Z,99.90
2019-02-28T13:56:13.090Z,99.90
2019-02-28T13:58:57.138Z,99.90
2019-02-28T14:01:36.708Z,99.90
2019-02-28T14:04:19.368Z,99.90
2019-02-28T14:07:00.016Z,99.70
2019-02-28T14:09:40.909Z,99.90
2019-02-28T14:12:21.780Z,99.80
2019-02-28T14:15:02.762Z,99.90
2019-02-28T14:17:43.372Z,99.90
2019-02-28T14:20:24.373Z,99.80
2019-02-28T14:23:07.101Z,99.90
2019-02-28T14:25:47.615Z,99.90
2019-02-28T14:28:28.605Z,99.80
2019-02-28T14:31:08.913Z,99.80
2019-02-28T14:33:51.483Z,99.90
2019-02-28T14:36:32.358Z,99.90
2019-02-28T14:39:13.376Z,99.90
2019-02-28T14:41:53.976Z,99.90
2019-02-28T14:44:35.004Z,99.90
2019-02-28T14:47:15.791Z,99.90
2019-02-28T14:49:56.712Z,99.90
2019-02-28T14:52:39.420Z,99.90
2019-02-28T14:55:20.381Z,99.90
2019-02-28T14:58:01.107Z,99.90
2019-02-28T15:00:42.290Z,99.90
2019-02-28T15:03:24.503Z,99.90
2019-02-28T15:06:05.454Z,99.90
2019-02-28T15:08:47.373Z,99.90
2019-02-28T15:11:28.938Z,99.90
2019-02-28T15:14:09.825Z,99.90
2019-02-28T15:16:50.398Z,99.90
2019-02-28T15:19:31.356Z,99.90
2019-02-28T15:22:14.198Z,99.90
2019-02-28T15:24:54.608Z,99.90
2019-02-28T15:27:36.373Z,99.90
2019-02-28T15:30:17.858Z,99.90
2019-02-28T15:32:58.575Z,99.90
2019-02-28T15:35:39.082Z,99.90
2019-02-28T15:38:19.560Z,99.90
2019-02-28T15:41:00.339Z,99.90
2019-02-28T15:43:41.858Z,99.90
2019-02-28T15:46:22.251Z,99.90
2019-02-28T15:49:03.272Z,99.90
2019-02-28T15:51:44.058Z,99.90
2019-02-28T15:54:25.285Z,99.90
2019-02-28T15:57:06.875Z,99.90
2019-02-28T15:59:49.808Z,99.90
2019-02-28T16:02:30.340Z,99.90
2019-02-28T16:05:10.840Z,99.90
2019-02-28T16:07:51.266Z,99.90
2019-02-28T16:10:32.137Z,99.90
2019-02-28T16:13:13.531Z,99.90
2019-02-28T16:15:54.411Z,99.90
2019-02-28T16:18:34.814Z,99.90
2019-02-28T16:21:15.303Z,99.90
2019-02-28T16:23:55.742Z,99.90
2019-02-28T16:26:36.198Z,99.90
2019-02-28T16:29:20.480Z,99.90
2019-02-28T16:31:59.077Z,99.90
2019-02-28T16:34:42.419Z,99.90
2019-02-28T16:37:22.667Z,99.90
2019-02-28T16:40:03.405Z,99.90
2019-02-28T16:42:46.461Z,99.90
2019-02-28T16:45:45.867Z,99.90
2019-02-28T16:48:26.330Z,99.90
2019-02-28T16:51:06.735Z,99.90
2019-02-28T16:53:47.946Z,99.90
2019-02-28T16:56:29.988Z,99.90
2019-02-28T16:59:10.816Z,99.90
2019-02-28T17:01:54.872Z,99.90
2019-02-28T17:04:34.331Z,99.90
2019-02-28T17:07:15.212Z,99.90
2019-02-28T17:09:55.974Z,99.90
2019-02-28T17:12:55.731Z,99.90
2019-02-28T17:16:01.218Z,99.90
2019-02-28T17:18:38.004Z,99.90
2019-02-28T17:21:19.421Z,99.90
2019-02-28T17:24:00.057Z,99.90
2019-02-28T17:27:06.210Z,99.90
2019-02-28T17:30:04.872Z,99.90
2019-02-28T17:32:46.720Z,99.90
2019-02-28T17:35:27.576Z,99.90
2019-02-28T17:38:08.422Z,99.90
2019-02-28T17:40:49.798Z,99.90
2019-02-28T17:43:30.634Z,99.90
2019-02-28T17:46:11.551Z,99.90
2019-02-28T17:48:52.782Z,99.90
2019-02-28T17:51:33.135Z,99.90
2019-02-28T17:54:13.894Z,99.90
2019-02-28T17:56:54.616Z,99.90
2019-02-28T17:59:36.104Z,99.90
2019-02-28T18:02:18.176Z,99.90
2019-02-28T18:04:59.135Z,99.90
2019-02-28T18:07:39.796Z,99.90
2019-02-28T18:10:21.115Z,99.90
2019-02-28T18:13:03.113Z,99.90
2019-02-28T18:15:45.904Z,99.90
2019-02-28T18:18:27.232Z,99.90
2019-02-28T18:21:07.642Z,99.90
2019-02-28T18:23:48.539Z,99.90
2019-02-28T18:26:38.543Z,99.90
2019-02-28T18:29:12.239Z,99.90
2019-02-28T18:31:53.878Z,99.90
2019-02-28T18:34:35.424Z,99.90
2019-02-28T18:37:15.981Z,99.90
2019-02-28T18:39:56.804Z,99.90
2019-02-28T18:42:38.337Z,99.90
2019-02-28T18:45:22.319Z,99.90
2019-02-28T18:48:02.168Z,99.90
2019-02-28T18:50:42.746Z,99.90
2019-02-28T18:53:23.550Z,99.90
2019-02-28T18:56:04.389Z,99.90
2019-02-28T18:58:45.077Z,99.90
2019-02-28T19:01:25.783Z,99.90
2019-02-28T19:04:06.473Z,99.90
2019-02-28T19:06:46.884Z,99.90
2019-02-28T19:09:27.548Z,99.90
2019-02-28T19:12:08.832Z,99.90
2019-02-28T19:14:49.331Z,99.90
2019-02-28T19:17:30.001Z,99.90
2019-02-28T19:20:10.829Z,99.90
2019-02-28T19:22:51.668Z,99.90
2019-02-28T19:25:32.199Z,99.90
2019-02-28T19:28:12.613Z,99.90
2019-02-28T19:30:53.240Z,99.90
2019-02-28T19:33:34.262Z,99.90
2019-02-28T19:36:14.933Z,99.90
2019-02-28T19:38:55.569Z,99.90
2019-02-28T19:41:36.625Z,99.90
2019-02-28T19:44:17.570Z,99.90
2019-02-28T19:46:58.126Z,99.90
2019-02-28T19:49:38.954Z,99.90
2019-02-28T19:52:19.552Z,99.90
2019-02-28T19:55:00.374Z,99.90
2019-02-28T19:57:40.738Z,99.90
2019-02-28T20:00:21.828Z,99.90
2019-02-28T20:03:02.525Z,99.90
2019-02-28T20:05:43.385Z,99.90
2019-02-28T20:08:24.939Z,99.90
2019-02-28T20:11:05.723Z,99.90
2019-02-28T20:13:47.006Z,99.90
2019-02-28T20:16:27.774Z,99.90
2019-02-28T20:19:08.585Z,99.90
2019-02-28T20:21:49.363Z,99.90
2019-02-28T20:24:29.866Z,99.90
2019-02-28T20:27:10.617Z,99.90
2019-02-28T20:29:55.060Z,99.90
2019-02-28T20:32:34.099Z,99.90
2019-02-28T20:35:15.101Z,99.90
2019-02-28T20:37:56.563Z,99.90
2019-02-28T20:40:37.112Z,99.90
2019-02-28T20:43:18.068Z,99.90
2019-02-28T20:45:58.430Z,99.90
2019-02-28T20:48:39.135Z,99.90
2019-02-28T20:51:20.280Z,99.90
2019-02-28T20:54:01.275Z,99.90
2019-02-28T20:56:41.846Z,99.90
2019-02-28T20:59:22.671Z,99.90
2019-02-28T21:02:03.355Z,99.90
2019-02-28T21:04:44.051Z,99.90
2019-02-28T21:07:24.846Z,99.90
2019-02-28T21:10:05.659Z,99.90
2019-02-28T21:12:46.803Z,99.90
2019-02-28T21:15:28.263Z,99.90
2019-02-28T21:18:09.305Z,99.90
2019-02-28T21:20:49.780Z,99.90
2019-02-28T21:23:30.538Z,99.90
2019-02-28T21:26:11.323Z,99.90
2019-02-28T21:28:51.795Z,99.90
2019-02-28T21:31:32.625Z,99.90
2019-02-28T21:34:13.428Z,99.90
2019-02-28T21:36:54.856Z,99.90
2019-02-28T21:39:35.629Z,99.90
2019-02-28T21:42:16.967Z,99.90
2019-02-28T21:44:58.120Z,99.90
2019-02-28T21:47:38.571Z,99.90
2019-02-28T21:50:19.259Z,99.90
2019-02-28T21:52:59.966Z,99.90
2019-02-28T21:55:40.991Z,99.90
2019-02-28T21:58:21.902Z,99.90
2019-02-28T22:01:03.039Z,99.90
2019-02-28T22:03:43.721Z,99.90
2019-02-28T22:06:24.762Z,99.90
2019-02-28T22:09:05.656Z,99.90
2019-02-28T22:11:47.110Z,99.90
2019-02-28T22:14:28.495Z,99.90
2019-02-28T22:17:09.175Z,99.90
2019-02-28T22:19:50.728Z,99.90
2019-02-28T22:22:31.167Z,99.90
2019-02-28T22:25:11.954Z,99.90
2019-02-28T22:27:53.007Z,99.90
2019-02-28T22:30:53.217Z,99.90
2019-02-28T22:33:51.297Z,99.90
2019-02-28T22:36:36.030Z,99.90
2019-02-28T22:39:17.139Z,99.90
2019-02-28T22:41:57.902Z,99.90
2019-02-28T22:44:38.690Z,99.90
2019-02-28T22:47:19.174Z,99.90
2019-02-28T22:50:00.387Z,99.90
2019-02-28T22:52:42.242Z,99.90
2019-02-28T22:55:23.074Z,99.90
2019-02-28T22:58:03.910Z,99.90
2019-02-28T23:01:03.291Z,99.90
2019-02-28T23:03:44.626Z,99.90
2019-02-28T23:06:25.714Z,99.90
2019-02-28T23:09:06.530Z,99.90
2019-02-28T23:11:46.946Z,99.90
2019-02-28T23:14:27.498Z,99.90
2019-02-28T23:17:08.251Z,99.90
2019-02-28T23:19:48.658Z,99.90
2019-02-28T23:22:29.198Z,99.90
2019-02-28T23:25:09.902Z,99.90
2019-02-28T23:27:50.974Z,99.90
2019-02-28T23:30:31.649Z,99.90
2019-02-28T23:33:12.002Z,99.90
2019-02-28T23:35:52.514Z,99.90
2019-02-28T23:38:33.329Z,99.90
2019-02-28T23:41:13.831Z,99.90
2019-02-28T23:43:54.687Z,99.90
2019-02-28T23:46:35.226Z,99.90
2019-02-28T23:49:16.066Z,99.90
2019-02-28T23:51:56.380Z,99.90
2019-02-28T23:54:36.896Z,99.90
2019-02-28T23:57:17.674Z,99.90
2019-02-28T23:59:58.423Z,99.90
